Time;durP1;ratioP1;P1;durP2;ratioP2;P2;SDS_P1;SDS_P2;PMS_P1;PMS_P2;Temp;Humidity;BMP_temperature;BMP_pressure;BME280_temperature;BME280_humidity;BME280_pressure;Samples;Min_cycle;Max_cycle;Signal;HPM_P1;HPM_P2
2024/03/13 00:00:03;;;;;;;0.90;0.70;;;;;;;-145.69;63.31;52341.41;5133683;27;20601;-79
2024/03/13 00:02:34;;;;;;;0.67;0.67;;;;;;;-145.69;63.48;52325.56;5133018;27;20706;-81
2024/03/13 00:05:01;;;;;;;0.80;0.60;;;;;;;-145.69;63.29;52337.44;5133483;27;20212;-79
2024/03/13 00:07:28;;;;;;;0.70;0.70;;;;;;;-145.69;63.14;52329.53;5133715;27;20208;-80
2024/03/13 00:09:56;;;;;;;0.77;0.77;;;;;;;-145.69;63.05;52305.75;5133310;27;20227;-79
2024/03/13 00:12:24;;;;;;;0.70;0.70;;;;;;;-145.69;62.94;52349.31;5133278;28;20199;-80
2024/03/13 00:14:53;;;;;;;0.93;0.70;;;;;;;-145.69;63.17;52345.38;5133109;27;20644;-79
2024/03/13 00:17:21;;;;;;;0.50;0.50;;;;;;;-145.69;63.07;52329.53;5133696;27;20192;-80
2024/03/13 00:19:48;;;;;;;0.67;0.67;;;;;;;-145.69;62.53;52351.31;5133083;28;20275;-80
2024/03/13 00:22:18;;;;;;;0.60;0.60;;;;;;;-145.69;62.19;52309.72;5133137;27;20197;-80
2024/03/13 00:24:45;;;;;;;0.87;0.60;;;;;;;-145.69;62.64;52345.38;5133335;27;20694;-80
2024/03/13 00:27:12;;;;;;;1.17;0.80;;;;;;;-145.69;61.78;52315.66;5133297;27;20627;-80
2024/03/13 00:29:40;;;;;;;0.60;0.50;;;;;;;-145.69;62.89;52363.19;5132623;27;20216;-81
2024/03/13 00:32:07;;;;;;;0.80;0.70;;;;;;;-145.69;62.41;52329.53;5148249;27;20232;-81
2024/03/13 00:34:36;;;;;;;0.60;0.60;;;;;;;-145.69;62.82;52299.81;5154055;27;20191;-81
2024/03/13 00:37:03;;;;;;;0.80;0.80;;;;;;;-145.69;62.94;52339.44;5154061;27;20200;-79
2024/03/13 00:39:31;;;;;;;0.60;0.60;;;;;;;-145.69;63.14;52351.31;5137955;27;20201;-80
2024/03/13 00:41:57;;;;;;;0.53;0.50;;;;;;;-145.69;62.96;52321.59;5120216;27;20202;-80
2024/03/13 00:44:25;;;;;;;0.50;0.50;;;;;;;-145.69;63.19;52337.44;5116414;28;20197;-80
2024/03/13 00:46:53;;;;;;;0.60;0.60;;;;;;;-145.69;63.59;52361.22;5116745;28;20204;-80
2024/03/13 00:49:19;;;;;;;0.60;0.60;;;;;;;-145.69;63.96;52321.59;5130042;27;20228;-80
2024/03/13 00:51:46;;;;;;;0.63;0.63;;;;;;;-145.69;63.46;52345.38;5137126;27;20316;-80
2024/03/13 00:54:15;;;;;;;0.60;0.60;;;;;;;-145.69;63.29;52381.00;5137316;27;20271;-80
2024/03/13 00:56:45;;;;;;;0.90;0.60;;;;;;;-145.69;63.36;52323.59;5136940;27;20196;-81
2024/03/13 00:59:12;;;;;;;1.10;0.50;;;;;;;-145.69;64.29;52351.31;5136153;27;20935;-81
2024/03/13 01:01:41;;;;;;;0.53;0.50;;;;;;;-145.69;63.41;52339.44;5136971;27;20204;-80
2024/03/13 01:04:08;;;;;;;0.50;0.50;;;;;;;-145.69;64.16;52331.50;5137150;27;20206;-79
2024/03/13 01:06:35;;;;;;;0.60;0.60;;;;;;;-145.69;63.69;52321.59;5136436;27;20197;-80
2024/03/13 01:09:03;;;;;;;0.50;0.50;;;;;;;-145.69;63.26;52333.47;5133035;27;20327;-81
2024/03/13 01:11:30;;;;;;;0.80;0.70;;;;;;;-145.69;63.96;52325.56;5130915;27;20279;-79
2024/03/13 01:13:57;;;;;;;0.57;0.57;;;;;;;-145.69;63.58;52353.28;5136203;27;20204;-80
2024/03/13 01:16:25;;;;;;;0.67;0.67;;;;;;;-145.69;63.76;52329.53;5135928;27;20196;-80
2024/03/13 01:18:52;;;;;;;0.63;0.63;;;;;;;-145.69;63.99;52349.31;5136783;27;20200;-80
2024/03/13 01:21:22;;;;;;;0.50;0.50;;;;;;;-145.69;63.74;52337.44;5136216;27;20243;-81
2024/03/13 01:23:48;;;;;;;0.70;0.70;;;;;;;-145.69;63.17;52325.56;5136463;27;20203;-81
2024/03/13 01:26:16;;;;;;;0.60;0.60;;;;;;;-145.69;62.76;52329.53;5136282;27;20212;-81
2024/03/13 01:28:43;;;;;;;0.73;0.60;;;;;;;-145.69;63.06;52329.53;5124758;27;20193;-81
2024/03/13 01:31:10;;;;;;;0.40;0.40;;;;;;;-145.69;63.41;52321.59;5136754;27;20213;-81
2024/03/13 01:33:38;;;;;;;0.50;0.50;;;;;;;-145.69;62.71;52333.47;5136192;27;20228;-81
2024/03/13 01:36:05;;;;;;;0.60;0.60;;;;;;;-145.69;63.00;52367.16;5136576;27;20199;-80
2024/03/13 01:38:32;;;;;;;0.67;0.60;;;;;;;-145.69;63.32;52317.66;5136245;27;20216;-81
2024/03/13 01:55:06;;;;;;;0.50;0.50;;;;;;;-145.69;63.59;52347.34;5135886;27;20203;-81
2024/03/13 01:57:45;;;;;;;0.50;0.50;;;;;;;-145.69;63.43;52353.28;5135805;27;20566;-80
2024/03/13 02:02:56;;;;;;;0.50;0.50;;;;;;;-145.69;63.86;52349.31;5135947;27;20207;-81
2024/03/13 02:05:24;;;;;;;0.77;0.60;;;;;;;-145.69;63.44;52325.56;5135656;27;20220;-81
2024/03/13 02:07:50;;;;;;;0.50;0.50;;;;;;;-145.69;63.76;52335.47;5135898;27;20284;-80
2024/03/13 02:10:18;;;;;;;0.60;0.60;;;;;;;-145.69;63.24;52297.84;5134805;27;20224;-81
2024/03/13 02:13:04;;;;;;;0.40;0.40;;;;;;;-145.69;63.91;52329.53;5135620;27;20659;-80
2024/03/13 02:15:31;;;;;;;0.57;0.57;;;;;;;-145.69;63.79;52325.56;5135398;27;20200;-80
2024/03/13 02:17:58;;;;;;;0.60;0.60;;;;;;;-145.69;63.79;52355.28;5135691;27;20669;-80
2024/03/13 02:20:25;;;;;;;0.60;0.57;;;;;;;-145.69;63.56;52325.56;5134756;27;20193;-81
2024/03/13 02:22:52;;;;;;;0.60;0.60;;;;;;;-145.69;63.55;52353.28;5135103;27;20196;-80
2024/03/13 02:25:19;;;;;;;0.93;0.43;;;;;;;-145.69;63.86;52329.53;5135587;27;20583;-81
2024/03/13 02:27:51;;;;;;;0.40;0.40;;;;;;;-145.69;63.59;52339.44;5116787;27;20193;-80
2024/03/13 02:30:18;;;;;;;1.13;0.50;;;;;;;-145.69;64.04;52309.72;5117034;27;20216;-79
2024/03/13 02:32:47;;;;;;;0.53;0.53;;;;;;;-145.69;64.01;52321.59;5116880;27;20223;-80
2024/03/13 02:35:13;;;;;;;0.60;0.60;;;;;;;-145.69;63.86;52321.59;5117570;27;20283;-80
2024/03/13 02:37:41;;;;;;;0.50;0.50;;;;;;;-145.69;64.93;52329.53;5116824;27;20212;-80
2024/03/13 02:40:08;;;;;;;0.70;0.70;;;;;;;-145.69;65.15;52301.81;5116708;27;20196;-80
2024/03/13 02:42:34;;;;;;;0.60;0.60;;;;;;;-145.69;65.48;52357.25;5113199;28;20221;-79
2024/03/13 02:45:04;;;;;;;0.70;0.60;;;;;;;-145.69;65.65;52329.53;5096211;28;20198;-80
2024/03/13 02:47:31;;;;;;;1.23;0.60;;;;;;;-145.69;65.94;52357.25;5096595;28;20254;-79
2024/03/13 02:49:58;;;;;;;0.60;0.60;;;;;;;-145.69;65.68;52327.53;5096333;28;20273;-80
2024/03/13 02:52:25;;;;;;;0.70;0.70;;;;;;;-145.69;66.16;52343.38;5103788;27;20192;-79
2024/03/13 02:54:52;;;;;;;1.20;0.63;;;;;;;-145.69;65.46;52379.03;5116655;27;20246;-80
2024/03/13 02:57:20;;;;;;;0.60;0.60;;;;;;;-145.69;65.56;52319.63;5112955;28;20203;-80
2024/03/13 02:59:47;;;;;;;0.63;0.63;;;;;;;-145.69;66.19;52333.47;5096449;28;20204;-80
2024/03/13 03:02:13;;;;;;;0.70;0.70;;;;;;;-145.69;65.91;52339.44;5095850;28;20197;-79
2024/03/13 03:04:42;;;;;;;0.53;0.53;;;;;;;-145.69;66.33;52317.66;5095422;28;20201;-80
2024/03/13 03:07:08;;;;;;;0.93;0.60;;;;;;;-145.69;66.38;52313.69;5100729;27;20283;-80
2024/03/13 03:09:35;;;;;;;0.83;0.67;;;;;;;-145.69;66.31;52317.66;5115258;27;20224;-79
2024/03/13 03:12:08;;;;;;;0.63;0.60;;;;;;;-145.69;66.28;52341.41;5116126;27;20200;-79
2024/03/13 03:14:35;;;;;;;0.80;0.70;;;;;;;-145.69;66.01;52313.69;5105440;28;20205;-79
2024/03/13 03:17:02;;;;;;;0.63;0.60;;;;;;;-145.69;66.34;52321.59;5099241;27;20192;-79
2024/03/13 03:19:29;;;;;;;0.50;0.50;;;;;;;-145.69;66.91;52327.53;5116176;27;20204;-79
2024/03/13 03:21:55;;;;;;;2.07;0.40;;;;;;;-145.69;66.21;52339.44;5115610;27;20639;-80
2024/03/13 03:24:22;;;;;;;0.47;0.47;;;;;;;-145.69;66.21;52335.47;5116156;27;20197;-79
2024/03/13 03:26:50;;;;;;;2.17;0.50;;;;;;;-145.69;65.99;52335.47;5115856;27;20197;-79
2024/03/13 03:29:17;;;;;;;2.50;0.40;;;;;;;-145.69;66.38;52309.72;5115976;27;20224;-79
2024/03/13 03:31:44;;;;;;;0.60;0.60;;;;;;;-145.69;66.58;52305.75;5115607;27;20227;-79
2024/03/13 03:34:12;;;;;;;0.40;0.40;;;;;;;-145.69;67.35;52311.69;5115760;27;20442;-78
2024/03/13 03:36:40;;;;;;;0.40;0.40;;;;;;;-145.69;66.86;52329.53;5116147;27;20196;-79
2024/03/13 03:39:10;;;;;;;0.53;0.53;;;;;;;-145.69;66.60;52331.50;5115247;27;20199;-78
2024/03/13 03:41:37;;;;;;;1.33;0.60;;;;;;;-145.69;66.63;52321.59;5095928;28;20204;-78
2024/03/13 03:44:03;;;;;;;2.00;0.53;;;;;;;-145.69;67.33;52329.53;5095253;28;20201;-78
2024/03/13 03:46:30;;;;;;;0.60;0.60;;;;;;;-145.69;67.30;52345.38;5095321;28;20570;-79
2024/03/13 03:48:58;;;;;;;0.50;0.50;;;;;;;-145.69;67.19;52357.25;5113872;27;20555;-78
2024/03/13 03:51:24;;;;;;;0.50;0.50;;;;;;;-145.69;67.78;52321.59;5115552;27;20236;-79
2024/03/13 03:53:50;;;;;;;0.50;0.50;;;;;;;-145.69;67.67;52373.09;5115507;27;20212;-78
2024/03/13 03:56:16;;;;;;;0.60;0.50;;;;;;;-145.69;67.63;52345.38;5114742;27;20224;-80
2024/03/13 03:58:43;;;;;;;1.60;0.50;;;;;;;-145.69;67.63;52365.16;5115479;27;20196;-78
2024/03/13 04:01:10;;;;;;;0.63;0.60;;;;;;;-145.69;67.12;52335.47;5115534;27;20250;-80
2024/03/13 04:03:37;;;;;;;2.63;0.50;;;;;;;-145.69;67.52;52331.50;5115492;27;20671;-78
2024/03/13 04:06:04;;;;;;;1.20;0.63;;;;;;;-145.69;67.93;52333.47;5111669;28;20200;-80
2024/03/13 04:08:31;;;;;;;0.60;0.60;;;;;;;-145.69;67.30;52345.38;5095237;28;20202;-80
2024/03/13 04:10:57;;;;;;;0.60;0.60;;;;;;;-145.69;67.92;52301.81;5106648;28;20236;-79
2024/03/13 04:13:24;;;;;;;4.83;0.70;;;;;;;-145.69;68.05;52345.38;5111562;28;20238;-79
2024/03/13 04:15:52;;;;;;;0.93;0.60;;;;;;;-145.69;67.50;52307.75;5113456;28;20200;-79
2024/03/13 04:18:19;;;;;;;0.40;0.40;;;;;;;-145.69;67.71;52315.66;5115683;28;20197;-78
2024/03/13 04:20:45;;;;;;;0.50;0.50;;;;;;;-145.69;67.35;52337.44;5115236;28;20204;-78
2024/03/13 04:23:13;;;;;;;0.43;0.43;;;;;;;-145.69;67.62;52319.63;5115689;28;20651;-79
2024/03/13 04:25:40;;;;;;;0.40;0.40;;;;;;;-145.69;67.78;52349.31;5114997;28;20203;-78
2024/03/13 04:28:07;;;;;;;0.60;0.60;;;;;;;-145.69;67.28;52339.44;5115274;28;20225;-78
2024/03/13 04:30:33;;;;;;;3.13;0.70;;;;;;;-145.69;67.80;52319.63;5115130;28;20220;-78
2024/03/13 04:33:00;;;;;;;0.73;0.60;;;;;;;-145.69;67.28;52337.44;5114873;28;20204;-78
2024/03/13 04:35:27;;;;;;;0.50;0.50;;;;;;;-145.69;67.46;52357.25;5114799;28;20203;-78
2024/03/13 04:37:53;;;;;;;1.67;1.57;;;;;;;-145.69;67.75;52347.34;5114969;27;20558;-78
2024/03/13 04:40:22;;;;;;;2.00;0.77;;;;;;;-145.69;67.39;52317.66;5111338;28;20197;-78
2024/03/13 04:42:48;;;;;;;0.60;0.60;;;;;;;-145.69;67.39;52317.66;5095103;28;20223;-79
2024/03/13 04:45:15;;;;;;;0.93;0.83;;;;;;;-145.69;67.50;52341.41;5094526;28;20201;-79
2024/03/13 04:47:42;;;;;;;2.23;0.73;;;;;;;-145.69;67.97;52333.47;5094920;28;20202;-78
2024/03/13 04:50:09;;;;;;;0.80;0.50;;;;;;;-145.69;67.49;52333.47;5098442;28;20231;-78
2024/03/13 04:52:35;;;;;;;0.93;0.60;;;;;;;-145.69;67.48;52295.84;5114833;27;20242;-78
2024/03/13 04:55:02;;;;;;;0.50;0.43;;;;;;;-145.69;67.97;52309.72;5115121;28;20204;-80
2024/03/13 04:57:29;;;;;;;1.70;0.70;;;;;;;-145.69;67.44;52337.44;5115115;28;20227;-77
2024/03/13 04:59:55;;;;;;;0.60;0.60;;;;;;;-145.69;67.60;52321.59;5114473;28;20575;-80
2024/03/13 05:02:24;;;;;;;1.20;0.70;;;;;;;-145.69;67.38;52341.41;5114674;28;20203;-77
2024/03/13 05:04:50;;;;;;;0.60;0.60;;;;;;;-145.69;67.82;52361.22;5111946;27;20644;-79
2024/03/13 05:07:18;;;;;;;0.60;0.57;;;;;;;-145.69;67.97;52317.66;5111067;28;20196;-79
2024/03/13 05:09:45;;;;;;;0.77;0.60;;;;;;;-145.69;67.50;52341.41;5110808;28;20194;-79
2024/03/13 05:12:12;;;;;;;3.30;1.53;;;;;;;-145.69;68.18;52349.31;5094177;28;20220;-79
2024/03/13 05:14:39;;;;;;;1.33;1.20;;;;;;;-145.69;68.03;52357.25;5114553;28;20211;-79
2024/03/13 05:17:05;;;;;;;1.50;0.90;;;;;;;-145.69;68.15;52373.09;5114550;28;20200;-78
2024/03/13 05:19:32;;;;;;;1.17;0.77;;;;;;;-145.69;67.88;52317.66;5114636;27;20655;-79
2024/03/13 05:21:59;;;;;;;3.00;0.60;;;;;;;-145.69;67.60;52345.38;5114462;28;20205;-79
2024/03/13 05:24:26;;;;;;;1.70;0.70;;;;;;;-145.69;67.84;52337.44;5114494;28;20197;-79
2024/03/13 05:26:53;;;;;;;2.53;0.87;;;;;;;-145.69;68.29;52307.75;5114430;28;20204;-79
2024/03/13 05:29:19;;;;;;;0.70;0.70;;;;;;;-145.69;68.12;52335.47;5117997;27;20229;-79
2024/03/13 05:31:46;;;;;;;1.30;0.73;;;;;;;-145.69;67.87;52309.72;5117593;27;20221;-78
2024/03/13 05:34:13;;;;;;;0.63;0.60;;;;;;;-145.69;67.50;52329.53;5118608;27;20614;-79
2024/03/13 05:36:40;;;;;;;0.80;0.80;;;;;;;-145.69;67.72;52339.44;5118156;27;20220;-78
2024/03/13 05:39:07;;;;;;;1.30;0.63;;;;;;;-145.69;68.00;52325.56;5118525;27;20244;-78
2024/03/13 05:41:34;;;;;;;0.80;0.80;;;;;;;-145.69;67.67;52341.41;5117480;27;20204;-79
2024/03/13 05:44:01;;;;;;;1.03;0.93;;;;;;;-145.69;68.07;52321.59;5118018;27;20201;-79
2024/03/13 05:46:27;;;;;;;0.70;0.70;;;;;;;-145.69;67.92;52317.66;5117599;27;20189;-79
2024/03/13 05:48:54;;;;;;;1.17;1.00;;;;;;;-145.69;68.10;52345.38;5117639;27;20197;-79
2024/03/13 05:51:21;;;;;;;1.00;0.90;;;;;;;-145.69;68.11;52351.31;5117619;27;20228;-79
2024/03/13 05:53:47;;;;;;;1.53;1.10;;;;;;;-145.69;68.03;52353.28;5117905;27;20566;-79
2024/03/13 05:56:14;;;;;;;1.10;1.00;;;;;;;-145.69;67.65;52287.94;5117661;27;20193;-79
2024/03/13 05:58:41;;;;;;;1.10;1.00;;;;;;;-145.69;67.40;52329.53;5117796;27;20231;-79
2024/03/13 06:01:10;;;;;;;1.20;0.90;;;;;;;-145.69;67.83;52349.31;5117152;27;20232;-79
2024/03/13 06:03:37;;;;;;;1.17;1.07;;;;;;;-145.69;68.35;52329.53;5117916;27;20249;-79
2024/03/13 06:06:04;;;;;;;2.23;1.10;;;;;;;-145.69;68.60;52339.44;5113882;28;20189;-79
2024/03/13 06:08:31;;;;;;;1.40;1.10;;;;;;;-145.69;68.61;52321.59;5097337;28;20202;-78
2024/03/13 06:10:58;;;;;;;1.20;1.10;;;;;;;-145.69;68.08;52297.84;5106911;27;20225;-78
2024/03/13 06:13:25;;;;;;;1.47;1.00;;;;;;;-145.69;68.17;52311.69;5115645;27;20189;-78
2024/03/13 06:15:51;;;;;;;1.17;1.00;;;;;;;-145.69;68.78;52329.53;5113338;28;20221;-78
2024/03/13 06:18:19;;;;;;;0.70;0.70;;;;;;;-145.69;68.82;52285.97;5096754;28;20208;-78
2024/03/13 06:20:47;;;;;;;4.63;0.97;;;;;;;-145.69;68.59;52325.56;5096701;28;20560;-78
2024/03/13 06:23:16;;;;;;;1.47;1.10;;;;;;;-145.69;68.50;52285.97;5097555;28;20242;-79
2024/03/13 06:25:45;;;;;;;1.17;1.07;;;;;;;-145.69;68.52;52301.81;5107074;27;20280;-79
2024/03/13 06:30:56;;;;;;;0.57;0.57;;;;;;;-145.69;68.34;52337.44;5119554;27;20236;-78
2024/03/13 06:33:22;;;;;;;1.87;0.70;;;;;;;-145.69;68.51;52317.66;5117336;27;20555;-78
2024/03/13 06:35:49;;;;;;;1.97;0.70;;;;;;;-145.69;69.03;52321.59;5113352;28;20221;-78
2024/03/13 06:38:15;;;;;;;0.70;0.67;;;;;;;-145.69;68.63;52319.63;5107462;28;20216;-79
2024/03/13 06:40:42;;;;;;;3.20;0.57;;;;;;;-145.69;69.08;52305.75;5113413;28;20194;-79
2024/03/13 06:43:08;;;;;;;0.83;0.53;;;;;;;-145.69;68.75;52309.72;5113366;28;20198;-78
2024/03/13 06:45:36;;;;;;;1.80;0.80;;;;;;;-145.69;68.72;52333.47;5112394;28;20190;-78
2024/03/13 06:48:03;;;;;;;0.60;0.60;;;;;;;-145.69;68.37;52329.53;5113129;28;20552;-79
2024/03/13 06:50:30;;;;;;;0.67;0.60;;;;;;;-145.69;68.15;52325.56;5112766;28;20236;-78
2024/03/13 06:52:56;;;;;;;0.60;0.60;;;;;;;-145.69;68.54;52363.19;5113181;28;20212;-78
2024/03/13 06:55:23;;;;;;;1.73;0.77;;;;;;;-145.69;68.79;52339.44;5112608;28;20548;-80
2024/03/13 06:57:50;;;;;;;2.00;1.00;;;;;;;-145.69;68.21;52359.22;5115840;27;20228;-79
2024/03/13 07:00:16;;;;;;;2.13;0.97;;;;;;;-145.69;68.22;52327.53;5115938;27;20803;-79
2024/03/13 07:02:43;;;;;;;0.97;0.90;;;;;;;-145.69;68.38;52341.41;5116640;27;20207;-79
2024/03/13 07:05:12;;;;;;;0.70;0.70;;;;;;;-145.69;68.25;52319.63;5116311;27;20207;-80
2024/03/13 07:07:40;;;;;;;2.77;1.27;;;;;;;-145.69;68.46;52319.63;5116824;27;20283;-79
2024/03/13 07:10:10;;;;;;;0.70;0.70;;;;;;;-145.69;68.02;52337.44;5116287;27;20203;-79
2024/03/13 07:12:37;;;;;;;0.80;0.80;;;;;;;-145.69;67.92;52329.53;5116881;27;20288;-79
2024/03/13 07:15:05;;;;;;;1.37;0.73;;;;;;;-145.69;68.17;52301.81;5113843;27;20280;-79
2024/03/13 07:17:32;;;;;;;0.90;0.63;;;;;;;-145.69;68.33;52327.53;5116211;27;20663;-79
2024/03/13 07:19:59;;;;;;;2.23;0.90;;;;;;;-145.69;67.97;52317.66;5116193;27;20197;-79
2024/03/13 07:22:25;;;;;;;1.10;1.00;;;;;;;-145.69;67.86;52345.38;5116104;27;20201;-79
2024/03/13 07:24:52;;;;;;;1.30;1.10;;;;;;;-145.69;67.75;52349.31;5115939;27;20564;-80
2024/03/13 07:27:19;;;;;;;0.80;0.80;;;;;;;-145.69;68.16;52313.69;5115098;27;20200;-79
2024/03/13 07:29:45;;;;;;;1.00;0.90;;;;;;;-145.69;68.17;52305.75;5115672;27;20196;-79
2024/03/13 07:32:14;;;;;;;1.37;1.13;;;;;;;-145.69;68.15;52325.56;5114624;27;20216;-79
2024/03/13 07:34:40;;;;;;;1.63;1.10;;;;;;;-145.69;68.12;52305.75;5116341;27;20225;-79
2024/03/13 07:37:07;;;;;;;3.30;1.40;;;;;;;-145.69;67.89;52301.81;5115297;27;20205;-79
2024/03/13 07:39:33;;;;;;;3.43;1.50;;;;;;;-145.69;67.89;52341.41;5116147;27;20257;-79
2024/03/13 07:42:00;;;;;;;5.20;1.60;;;;;;;-145.69;67.50;52325.56;5112219;28;20197;-79
2024/03/13 07:44:27;;;;;;;2.90;1.83;;;;;;;-145.69;68.00;52287.94;5104377;27;20200;-79
2024/03/13 07:46:53;;;;;;;1.77;1.40;;;;;;;-145.69;68.07;52317.66;5111758;28;20200;-79
2024/03/13 07:49:19;;;;;;;1.73;1.23;;;;;;;-145.69;68.37;52341.41;5095189;28;20201;-79
2024/03/13 07:51:46;;;;;;;1.83;1.57;;;;;;;-145.69;68.03;52291.91;5102685;27;20727;-80
2024/03/13 07:54:12;;;;;;;1.50;1.30;;;;;;;-145.69;68.41;52341.41;5115393;27;20195;-80
2024/03/13 07:56:39;;;;;;;4.90;1.67;;;;;;;-145.69;68.07;52301.81;5115343;27;20200;-79
2024/03/13 07:59:06;;;;;;;1.97;1.40;;;;;;;-145.69;68.23;52313.69;5115256;27;20200;-79
2024/03/13 08:01:33;;;;;;;3.87;1.67;;;;;;;-145.69;68.46;52317.66;5111271;28;20644;-80
2024/03/13 08:04:00;;;;;;;3.30;1.33;;;;;;;-145.69;67.15;52329.53;5095115;28;20201;-79
2024/03/13 08:06:28;;;;;;;1.57;1.30;;;;;;;-145.69;67.96;52305.75;5094838;28;20201;-80
2024/03/13 08:08:54;;;;;;;4.00;1.30;;;;;;;-145.69;67.74;52293.88;5095018;28;20225;-79
2024/03/13 08:11:21;;;;;;;1.87;1.20;;;;;;;-145.69;67.39;52321.59;5099001;27;20213;-79
2024/03/13 08:13:48;;;;;;;1.10;1.00;;;;;;;-145.69;67.14;52323.59;5114942;28;20197;-79
2024/03/13 08:16:14;;;;;;;2.17;1.20;;;;;;;-145.69;67.89;52309.72;5114593;28;20196;-81
2024/03/13 08:18:41;;;;;;;1.70;1.20;;;;;;;-145.69;67.09;52333.47;5115273;28;20274;-79
2024/03/13 08:21:08;;;;;;;2.97;1.07;;;;;;;-145.69;67.72;52323.59;5115427;28;20227;-80
2024/03/13 08:23:34;;;;;;;0.73;0.73;;;;;;;-145.69;67.12;52282.00;5115513;28;20211;-80
2024/03/13 08:26:01;;;;;;;11.37;3.83;;;;;;;-145.69;67.28;52297.84;5114967;28;20201;-79
2024/03/13 08:28:27;;;;;;;5.80;2.67;;;;;;;-145.69;67.28;52270.13;5114777;28;20193;-79
2024/03/13 08:30:54;;;;;;;4.93;1.40;;;;;;;-145.69;67.35;52289.91;5115020;28;20690;-79
2024/03/13 08:33:20;;;;;;;2.60;1.13;;;;;;;-145.69;67.55;52297.84;5114953;28;20567;-79
2024/03/13 08:35:47;;;;;;;1.00;0.90;;;;;;;-145.69;67.13;52325.56;5115072;28;20207;-80
2024/03/13 08:38:14;;;;;;;2.07;1.10;;;;;;;-145.69;66.68;52301.81;5111257;28;20551;-79
2024/03/13 08:40:40;;;;;;;0.73;0.70;;;;;;;-145.69;66.83;52321.59;5094760;28;20205;-80
2024/03/13 08:43:07;;;;;;;0.80;0.80;;;;;;;-145.69;66.34;52280.00;5094234;28;20232;-79
2024/03/13 08:45:34;;;;;;;1.07;0.80;;;;;;;-145.69;66.57;52285.97;5108561;28;20212;-79
2024/03/13 08:48:03;;;;;;;2.93;0.80;;;;;;;-145.69;66.51;52317.66;5109624;28;20261;-79
2024/03/13 08:50:30;;;;;;;1.73;0.80;;;;;;;-145.69;66.92;52309.72;5115372;28;20255;-80
2024/03/13 08:52:57;;;;;;;0.67;0.67;;;;;;;-145.69;66.35;52293.88;5112746;27;20270;-80
2024/03/13 08:55:25;;;;;;;0.73;0.73;;;;;;;-145.69;66.32;52297.84;5095610;28;20196;-78
2024/03/13 08:57:51;;;;;;;1.75;0.85;;;;;;;-145.69;66.22;52266.16;5108539;28;20212;-80
2024/03/13 09:00:20;;;;;;;0.85;0.82;;;;;;;-145.69;66.27;52305.75;5114657;28;20250;-80
2024/03/13 09:02:48;;;;;;;0.85;0.80;;;;;;;-145.69;65.56;52282.00;5117936;27;20205;-79
2024/03/13 09:05:15;;;;;;;1.23;0.90;;;;;;;-145.69;65.61;52274.06;5118776;27;20217;-80
2024/03/13 09:07:42;;;;;;;0.70;0.70;;;;;;;-145.69;65.23;52301.81;5115220;28;20194;-81
2024/03/13 09:10:12;;;;;;;1.98;0.70;;;;;;;-145.69;65.73;52307.75;5098135;28;20198;-80
2024/03/13 09:12:38;;;;;;;0.65;0.60;;;;;;;-145.69;65.63;52278.03;5115083;27;20224;-80
2024/03/13 09:15:05;;;;;;;0.88;0.88;;;;;;;-145.69;65.39;52285.97;5114640;28;20193;-80
2024/03/13 09:17:32;;;;;;;1.27;0.98;;;;;;;-145.69;65.66;52272.09;5098220;28;20197;-81
2024/03/13 09:19:58;;;;;;;1.30;0.80;;;;;;;-145.69;65.90;52295.84;5105912;27;20201;-81
2024/03/13 09:22:25;;;;;;;1.85;0.88;;;;;;;-145.69;65.48;52282.00;5118099;27;20675;-81
2024/03/13 09:24:52;;;;;;;1.10;1.00;;;;;;;-145.69;65.12;52301.81;5118407;27;20203;-80
2024/03/13 09:27:18;;;;;;;1.20;0.88;;;;;;;-145.69;65.63;52289.91;5118526;27;20201;-80
2024/03/13 09:29:45;;;;;;;1.15;1.05;;;;;;;-145.69;64.67;52283.97;5118114;27;20196;-78
2024/03/13 09:32:11;;;;;;;1.48;0.82;;;;;;;-145.69;64.00;52285.97;5118438;27;20225;-78
2024/03/13 09:34:38;;;;;;;1.15;0.70;;;;;;;-145.69;64.79;52270.13;5118121;27;20208;-79
2024/03/13 09:37:06;;;;;;;0.88;0.88;;;;;;;-145.69;65.11;52323.59;5118256;27;20220;-78
2024/03/13 09:39:33;;;;;;;0.73;0.73;;;;;;;-145.69;65.49;52319.63;5118084;27;20196;-79
2024/03/13 09:42:00;;;;;;;1.00;0.90;;;;;;;-145.69;64.82;52262.19;5114179;28;20201;-80
2024/03/13 09:44:26;;;;;;;0.93;0.80;;;;;;;-145.69;65.48;52276.06;5104242;27;20189;-80
2024/03/13 09:46:54;;;;;;;0.60;0.60;;;;;;;-145.69;64.96;52295.84;5117946;27;20197;-80
2024/03/13 09:49:21;;;;;;;1.35;0.70;;;;;;;-145.69;64.61;52282.00;5118184;27;20609;-80
2024/03/13 09:51:48;;;;;;;2.72;1.70;;;;;;;-145.69;64.04;52254.28;5113981;28;20260;-80
2024/03/13 09:54:16;;;;;;;2.40;1.60;;;;;;;-145.69;64.15;52214.66;5097428;28;20717;-81
2024/03/13 09:56:43;;;;;;;2.13;1.30;;;;;;;-145.69;62.93;52289.91;5097497;28;20212;-81
2024/03/13 09:59:09;;;;;;;1.67;1.27;;;;;;;-145.69;63.42;52289.91;5097615;28;20197;-81
2024/03/13 10:01:36;;;;;;;1.95;1.38;;;;;;;-145.69;63.43;52266.16;5113551;27;20231;-80
2024/03/13 10:04:10;;;;;;;1.30;1.20;;;;;;;-145.69;63.48;52258.22;5117813;27;20201;-81
2024/03/13 10:06:37;;;;;;;0.93;0.90;;;;;;;-145.69;61.75;52242.38;5118846;27;20295;-81
2024/03/13 10:09:09;;;;;;;1.90;1.50;;;;;;;-145.69;62.22;52258.22;5117469;27;20559;-79
2024/03/13 10:11:35;;;;;;;0.70;0.70;;;;;;;-145.69;61.68;52262.19;5115283;27;20568;-79
2024/03/13 10:14:02;;;;;;;1.00;0.90;;;;;;;-145.69;61.72;52268.13;5125533;27;20204;-78
2024/03/13 10:16:28;;;;;;;1.45;1.10;;;;;;;-145.69;61.57;52232.50;5113647;27;20533;-79
2024/03/13 10:18:55;;;;;;;2.03;1.10;;;;;;;-145.69;60.89;52250.31;5113252;27;20200;-80
2024/03/13 10:21:23;;;;;;;2.03;1.02;;;;;;;-145.69;60.78;52262.19;5105753;28;20205;-80
2024/03/13 10:23:50;;;;;;;1.67;1.00;;;;;;;-145.69;61.53;52272.09;5113729;28;20287;-79
2024/03/13 10:26:16;;;;;;;1.20;0.98;;;;;;;-145.69;60.71;52276.06;5113954;28;20211;-79
2024/03/13 10:28:43;;;;;;;1.13;0.82;;;;;;;-145.69;60.86;52244.38;5132919;27;20189;-81
2024/03/13 10:31:11;;;;;;;3.60;1.50;;;;;;;-145.69;60.99;52250.31;5116468;27;20192;-79
2024/03/13 10:33:38;;;;;;;1.50;1.00;;;;;;;-145.69;61.00;52222.59;5113051;28;20606;-79
2024/03/13 10:36:06;;;;;;;2.78;1.45;;;;;;;-145.69;61.06;52254.28;5096743;28;20205;-80
2024/03/13 10:38:33;;;;;;;1.48;1.05;;;;;;;-145.69;60.80;52266.16;5113724;28;20208;-81
2024/03/13 10:41:01;;;;;;;2.95;1.25;;;;;;;-145.69;61.06;52252.28;5102320;28;20247;-80
2024/03/13 10:43:31;;;;;;;1.15;0.95;;;;;;;-145.69;60.40;52248.34;5113244;28;20205;-80
2024/03/13 10:45:57;;;;;;;1.98;1.13;;;;;;;-145.69;59.99;52246.34;5116916;27;20231;-81
2024/03/13 10:48:24;;;;;;;1.48;0.80;;;;;;;-145.69;60.57;52234.47;5116989;27;20200;-79
2024/03/13 10:50:50;;;;;;;4.10;1.50;;;;;;;-145.69;60.61;52206.75;5112348;28;20225;-81
2024/03/13 10:53:19;;;;;;;2.08;0.98;;;;;;;-145.69;60.19;52236.44;5096360;28;20225;-80
2024/03/13 10:55:45;;;;;;;2.22;1.00;;;;;;;-145.69;61.05;52242.38;5104838;28;20254;-82
2024/03/13 10:58:17;;;;;;;0.82;0.70;;;;;;;-145.69;61.04;52234.47;5116309;27;20197;-80
2024/03/13 11:00:44;;;;;;;1.10;0.70;;;;;;;-145.69;60.87;52226.53;5113091;28;20204;-80
2024/03/13 11:03:12;;;;;;;1.00;0.85;;;;;;;-145.69;60.33;52303.78;5112310;28;20267;-78
2024/03/13 11:05:38;;;;;;;0.82;0.60;;;;;;;-145.69;60.35;52214.66;5113338;27;20693;-82
2024/03/13 11:08:06;;;;;;;1.00;0.80;;;;;;;-145.69;60.57;52252.28;5098093;27;20201;-82
2024/03/13 11:10:34;;;;;;;0.80;0.60;;;;;;;-145.69;60.35;52266.16;5116510;27;20659;-81
2024/03/13 11:13:02;;;;;;;0.80;0.70;;;;;;;-145.69;60.32;52260.22;5116389;27;20224;-80
2024/03/13 11:15:29;;;;;;;0.85;0.70;;;;;;;-145.69;60.82;52230.50;5112356;28;20217;-80
2024/03/13 11:17:56;;;;;;;0.70;0.70;;;;;;;-145.69;60.54;52234.47;5095747;27;20194;-80
2024/03/13 11:20:26;;;;;;;1.60;1.00;;;;;;;-145.69;60.54;52216.66;5116080;27;20200;-80
2024/03/13 11:22:53;;;;;;;1.83;0.93;;;;;;;-145.69;60.54;52268.13;5112948;27;20225;-80
2024/03/13 11:25:20;;;;;;;1.30;1.20;;;;;;;-145.69;60.69;52232.50;5095222;28;20200;-79
2024/03/13 11:27:48;;;;;;;3.95;1.67;;;;;;;-145.69;60.01;52242.38;5095737;28;20193;-80
2024/03/13 11:30:15;;;;;;;1.35;0.82;;;;;;;-145.69;60.79;52278.03;5114680;27;20193;-80
2024/03/13 11:32:41;;;;;;;4.15;1.55;;;;;;;-145.69;60.65;52234.47;5115981;27;20224;-80
2024/03/13 11:35:08;;;;;;;2.28;1.45;;;;;;;-145.69;60.45;52246.34;5115770;27;20203;-80